Tiempo atmosférico en la estación meteorológica de Huercal Overa, Almería (295 m.)



Fecha
DESCASC
Temp. máxima en grados centígrados (hora)
DESCASC
Temp. mínima en grados centígrados (hora)
DESCASC
Temp. media en grados centígrados
DESCASC
Racha de viento máxima en m/sg (hora)
DESCASC
Velocidad máxima media en intervalos de 10 minutos(hora)
DESCASC
Precipitaciones diarias en mm
DESCASC
Precipitaciones de 00:00 a 06:00 en mm
DESCASC
Precipitaciones de 06:00 a 12:00 en mm
DESCASC
Precipitaciones de 12:00 a 18:00 en mm
DESCASC
Precipitaciones de 18:00 a 24:00 en mm
DESCASC

Gráficas

Temp. máximas Temp. mínimas Temp. medias Precipitaciones Rachas de viento máximas Velocidades máximas media en intervalos de 10 minutos

Datos horarios

Fecha y hora oficial Temperatura (ºC) Velocidad del viento (km/h) Dirección del viento Racha (km/h) Dirección de racha Precipitación (mm) Presión (hPa) Tendencia (hPa) Humedad (%)
2020-08-12 23:00:00 24.7 6 Este 25 Este 0 978.8 2.5 67
2020-08-12 22:00:00 26.3 8 Este 22 Este 0 978.1 1.6 53
2020-08-12 21:00:00 28.4 6 Sur 23 Sudeste 0 977 0.5 40
2020-08-12 20:00:00 29.7 9 Sudeste 32 Sur 0 976.3 -0.7 34
2020-08-12 19:00:00 30.7 9 Sudeste 33 Sudeste 0 976.5 -1.2 32
2020-08-12 18:00:00 31.1 14 Sur 32 Sudeste 0 976.5 -1.9 36
2020-08-12 17:00:00 30 14 Sur 31 Sudeste 0 977 -1.8 43
2020-08-12 16:00:00 31.1 12 Sudeste 30 Sur 0 977.7 -1.6 44
2020-08-12 15:00:00 30.1 11 Sur 32 Oeste 0 978.4 -1 49
2020-08-12 14:00:00 29.4 13 Sur 25 Sudoeste 0 978.8 -0.8 44
2020-08-12 13:00:00 29.4 14 Sudoeste 25 Sudoeste 0 979.3 0 43
2020-08-12 12:00:00 28.7 6 Sur 15 Sur 0 979.4 0.5 48
2020-08-12 11:00:00 26.6 8 Sudoeste 16 Sudoeste 0 979.6 0.6 56
2020-08-12 10:00:00 28.2 0 Calma 5 Sudoeste 0 979.3 0.5 40
2020-08-12 09:00:00 26.2 0 Calma -- -- 0 978.9 0.8 46
2020-08-12 08:00:00 23.3 0 Calma 9 Este 0 979 0.7 53
2020-08-12 07:00:00 23.9 2 Este 10 Sudeste 0 978.8 0.5 51
2020-08-12 06:00:00 24 4 Este 13 Este 0 978.1 0.1 54
2020-08-12 05:00:00 24.2 0 Calma 7 Sudeste 0 978.3 0.1 81
2020-08-12 04:00:00 24 3 Sudeste 14 Sudoeste 0 978.3 0.4 81
2020-08-12 03:00:00 24.5 3 Sur 10 Sur 0 978 -0.1 80
2020-08-12 02:00:00 24.5 4 Sur 11 Sudeste 0 978.2 -- 81
2020-08-12 01:00:00 24.5 2 Norte 15 Sur 0 977.9 -- 81
2020-08-12 00:00:00 24.2 7 Sur 18 Sur 0 978.1 -- 81
2020-08-11 23:00:00 24.8 7 Sudoeste 14 Sudoeste 0 977.6 -- 81
2020-08-11 22:00:00 25 6 Sudeste 17 Este 0 976.8 -- 81
2020-08-11 21:00:00 25.2 10 Sur 42 Sudoeste 0 976.1 -- 81
2020-08-11 20:00:00 27.8 4 Este 18 Oeste 0 974.3 -- 68
2020-08-11 19:00:00 27.7 8 Sur 21 Sudoeste 0 975.5 -- 67
2020-08-11 18:00:00 27.1 17 Sur 28 Sur 0 976.2 -- 71
2020-08-11 17:00:00 28.3 4 Sudeste 25 Sur 0 975.6 -- 62
2020-08-11 16:00:00 28.8 10 Sur 23 Sudeste 0 976.7 -- 57
2020-08-11 15:00:00 29.7 11 Este 27 Este 0 976.8 -- 52
2020-08-11 14:00:00 33.1 5 Este 20 Este 0 977.2 -- 34
2020-08-11 13:00:00 31.5 5 Sudeste 17 Sudeste 0 977.2 -- 30
2020-08-11 12:00:00 30.7 7 Sudeste 19 Este 0 977.5 -- 27
2020-08-11 11:00:00 31.2 4 Este 15 Este 0 978.2 -- 29
2020-08-11 10:00:00 31.2 0 Calma 11 Sudoeste 0 977.2 -- 31
2020-08-11 09:00:00 26.6 2 Sudeste 14 Nordeste 0 976.8 -- 46
2020-08-11 08:00:00 24.6 4 Este 19 Nordeste 0 976.5 -- 55
2020-08-11 07:00:00 24.7 9 Este 25 Sudeste 0 975.9 -- 53
2020-08-11 06:00:00 25.3 5 Norte 32 Sudeste 0 976.1 -- 42
2020-08-11 05:00:00 25.9 9 Norte 21 Norte 0 976.5 -- 44
2020-08-11 04:00:00 25.7 2 Este 8 Sudeste 0 976.6 -- 47
2020-08-11 03:00:00 25 0 Calma 10 Sudeste 0 977.8 -- 59
2020-08-11 02:00:00 25.4 5 Este 10 Este 0 978.9 -- 61
2020-08-11 01:00:00 25.8 2 Nordeste 8 Sudoeste 0 979.3 -- 60
2020-08-11 00:00:00 25.9 3 Sudoeste 23 Sudoeste 0 979.5 -- 62
2020-08-10 23:00:00 26 17 Sudoeste 25 Sudoeste 0 979.5 -- 64
2020-08-10 22:00:00 26.6 5 Sudoeste 18 Sudoeste 0 977.6 -- 60
2020-08-10 21:00:00 27.5 9 Sudoeste 20 Sudoeste 0 977.3 -- 58
2020-08-10 20:00:00 28.5 9 Sur 26 Sudoeste 0 975.8 -- 55
2020-08-10 19:00:00 29.7 13 Sur 33 Sudoeste 0 976 -- 45
2020-08-10 18:00:00 31.4 17 Sudoeste 32 Sudoeste 0 975.5 -- 34
2020-08-10 17:00:00 33.2 11 Sudoeste 27 Sur 0 975.5 -- 30
2020-08-10 16:00:00 33.2 15 Sur 25 Sur 0 976.3 -- 26
2020-08-10 15:00:00 35.5 6 Sudeste 23 Sur 0 976.4 -- 20
2020-08-10 14:00:00 33.8 14 Sur 23 Sur 0 977 -- 21
2020-08-10 13:00:00 34.5 4 Sur 14 Este 0 977.8 -- 18
2020-08-10 12:00:00 34.6 2 Nordeste 10 Sudeste 0 977.8 -- 19
2020-08-10 11:00:00 32.9 0 Calma 6 Noroeste 0 978.2 -- 21
2020-08-10 10:00:00 30.8 0 Calma 8 Nordeste 0 977.5 -- 27
2020-08-10 09:00:00 26.1 2 Oeste 7 Noroeste 0 977.7 -- 31
2020-08-10 08:00:00 21.7 2 Noroeste 8 Noroeste 0 978.4 -- 37
2020-08-10 07:00:00 21.9 2 Este 9 Nordeste 0 978.5 -- 44
2020-08-10 06:00:00 23.2 6 Este 15 Este 0 978.3 -- 51
2020-08-10 05:00:00 23.3 8 Nordeste 12 Nordeste 0 978.5 -- 41
2020-08-10 04:00:00 22.5 3 Nordeste 7 Noroeste 0 978.9 -- 32
2020-08-10 03:00:00 24.1 0 Calma 5 Noroeste 0 979.5 -- 31
2020-08-10 02:00:00 24.2 0 Calma 9 Nordeste 0 979.3 -- 31
2020-08-10 01:00:00 25.2 0 Calma 6 Sudeste 0 979.4 -- 31
2020-08-10 00:00:00 26 0 Calma 10 Oeste 0 979.4 -- 31
2020-08-09 23:00:00 26.6 3 Sudoeste 6 Oeste 0 979.7 -- 32
2020-08-09 22:00:00 28 3 Sudoeste 9 Sur 0 979.3 -- 31
2020-08-09 21:00:00 29.3 4 Sur 12 Sudoeste 0 978.5 -- 27
2020-08-09 20:00:00 31.5 5 Sur 15 Sudoeste 0 978 -- 24
2020-08-09 19:00:00 32.3 10 Sur 23 Sudoeste 0 978.2 -- 27
2020-08-09 18:00:00 33 12 Sur 24 Sudoeste 0 978.6 -- 28
2020-08-09 17:00:00 32.4 15 Sur 28 Sudoeste 0 979.1 -- 27
2020-08-09 16:00:00 32.5 16 Sur 25 Sudoeste 0 979.5 -- 26
2020-08-09 15:00:00 33.7 14 Sudoeste 29 Sudoeste 0 979.8 -- 22
2020-08-09 14:00:00 33.2 17 Sudoeste 30 Sudoeste 0 980.4 -- 20
2020-08-09 13:00:00 34.1 13 Sudoeste 21 Sur 0 980.9 -- 17
2020-08-09 12:00:00 34.9 4 Sur 12 Sudoeste 0 981.7 -- 20
2020-08-09 11:00:00 32 6 Sur 12 Sur 0 982 -- 22
2020-08-09 10:00:00 29.9 0 Calma 5 Sur 0 981.1 -- 26
2020-08-09 09:00:00 27.5 0 Calma 6 Sudoeste 0 981 -- 29
2020-08-09 08:00:00 22.4 0 Calma 6 Noroeste 0 981.4 -- 43
2020-08-09 07:00:00 22.1 0 Calma 4 Oeste 0 981.6 -- 42
2020-08-09 06:00:00 22.8 0 Calma 5 Noroeste 0 981.7 -- 40
2020-08-09 05:00:00 23 0 Calma 6 Oeste 0 982 -- 48
2020-08-09 04:00:00 24.3 0 Calma 6 Norte 0 982.3 -- 46
2020-08-09 03:00:00 24.7 0 Calma 15 Noroeste 0 982.1 -- 45
2020-08-09 02:00:00 25.7 4 Este 15 Este 0 982.3 -- 42
2020-08-09 01:00:00 26.2 2 Nordeste 8 Este 0 982.8 -- 43
2020-08-09 00:00:00 25.8 0 Calma 5 Sur 0 982.9 -- 46
2020-08-08 23:00:00 26.2 0 Calma 5 Sudoeste 0 982.7 -- 47
2020-08-08 22:00:00 26.9 0 Calma 7 Oeste 0 982.4 -- 46
2020-08-08 21:00:00 27.4 6 Sudoeste 15 Sudoeste 0 982 -- 44
2020-08-08 20:00:00 29.4 7 Sur 16 Sudoeste 0 981.6 -- 39
2020-08-08 19:00:00 29.5 11 Sudoeste 24 Sudoeste 0 981.7 -- 39
2020-08-08 18:00:00 30.6 13 Sudoeste 25 Sudoeste 0 982 -- 33
2020-08-08 17:00:00 31.6 14 Sudoeste 29 Sudoeste 0 982.1 -- 26
2020-08-08 16:00:00 33.3 16 Sudoeste 31 Sudoeste 0 982.5 -- 19
2020-08-08 15:00:00 33.3 13 Sudoeste 26 Sur 0 982.8 -- 18
2020-08-08 14:00:00 32.9 14 Sudoeste 27 Sudoeste 0 983.2 -- 19
2020-08-08 13:00:00 34.3 4 Sur 14 Sudoeste 0 984.1 -- 16
2020-08-08 12:00:00 34.7 0 Calma 12 Este 0 984.7 -- 18
2020-08-08 11:00:00 31.3 4 Este 12 Sudeste 0 984.8 -- 21
2020-08-08 10:00:00 29.2 2 Este 7 Oeste 0 984.6 -- 32
2020-08-08 09:00:00 25.2 0 Calma 9 Nordeste 0 984.3 -- 40
2020-08-08 08:00:00 21.7 0 Calma 7 Este 0 984.6 -- 47
2020-08-08 07:00:00 20.6 0 Calma 5 Sudoeste 0 984.5 -- 46
2020-08-08 06:00:00 20.7 0 Calma -- -- 0 984.3 -- 48
2020-08-08 05:00:00 21.1 0 Calma 3 Noroeste 0 984.5 -- 49
2020-08-08 04:00:00 21.1 0 Calma 5 Oeste 0 984.5 -- 50
2020-08-08 03:00:00 22.1 0 Calma 4 Oeste 0 984.8 -- 47
2020-08-08 02:00:00 23.5 0 Calma 5 Noroeste 0 984.7 -- 46
2020-08-08 01:00:00 24.3 0 Calma 6 Nordeste 0 984.7 -- 43
2020-08-08 00:00:00 24.8 0 Calma 5 Sudoeste 0 984.6 -- 45
2020-08-07 23:00:00 25.4 3 Sudoeste 8 Sudoeste 0 984.1 -- 42
2020-08-07 22:00:00 26.2 4 Sudoeste 10 Sudoeste 0 983.1 -- 35
2020-08-07 21:00:00 27.3 6 Sudoeste 18 Sur 0 982.6 -- 30
2020-08-07 20:00:00 28.8 10 Sur 18 Sur 0 982.4 -- 24
2020-08-07 19:00:00 30.2 11 Sudoeste 24 Sudoeste 0 982.3 -- 23
2020-08-07 18:00:00 30.3 14 Sur 25 Sur 0 982.5 -- 24
2020-08-07 17:00:00 30.3 18 Sur 30 Sur 0 982.8 -- 23
2020-08-07 16:00:00 31.2 15 Sur 28 Sudoeste 0 982.8 -- 18
2020-08-07 15:00:00 32.1 14 Sur 26 Sur 0 982.9 -- 16
2020-08-07 14:00:00 31.6 10 Sur 24 Sudoeste 0 983.3 -- 17
2020-08-07 13:00:00 31.5 6 Sur 19 Sudoeste 0 983.8 -- 17
2020-08-07 12:00:00 29.4 9 Sur 20 Este 0 984 -- 20
2020-08-07 11:00:00 29.2 5 Este 15 Este 0 983 -- 24
2020-08-07 10:00:00 26.7 4 Sudeste 11 Este 0 983.4 -- 36
2020-08-07 09:00:00 23.5 4 Oeste 8 Noroeste 0 983.5 -- 45
2020-08-07 08:00:00 22.8 0 Calma 8 Noroeste 0 982.9 -- 51
2020-08-07 07:00:00 21.1 5 Nordeste 13 Nordeste 0 982.8 -- 62
2020-08-07 06:00:00 21.6 0 Calma 5 Nordeste 0 982.5 -- 62
2020-08-07 05:00:00 21.4 0 Calma 10 Oeste 0 982.5 -- 65
2020-08-07 04:00:00 22.4 3 Nordeste 8 Nordeste 0 982.6 -- 65
2020-08-07 03:00:00 22.8 3 Este 11 Este 0 983 -- 61
2020-08-07 02:00:00 23.8 0 Calma 6 Sudeste 0 983.1 -- 55
2020-08-07 01:00:00 24 0 Calma 5 Noroeste 0 982.8 -- 66
2020-08-07 00:00:00 24.3 3 Norte 6 Este 0 982.5 -- 69
2020-08-06 23:00:00 25 0 Calma 8 Este 0 982.2 -- 65
2020-08-06 22:00:00 25.2 0 Calma 13 Sudoeste 0 981.7 -- 58
2020-08-06 21:00:00 26 6 Sudoeste 14 Sudeste 0 981.2 -- 49
2020-08-06 20:00:00 28.4 5 Sur 21 Sur 0 980.3 -- 42
2020-08-06 19:00:00 29 10 Sudoeste 24 Sur 0 979.9 -- 39
2020-08-06 18:00:00 29.7 12 Sur 25 Sudoeste 0 980 -- 39
2020-08-06 17:00:00 29.6 13 Sur 27 Sur 0 979.8 -- 39
2020-08-06 16:00:00 32.8 7 Sur 23 Sur 0 980.1 -- 33
2020-08-06 15:00:00 30.8 13 Sur 22 Sur 0 980.6 -- 30
2020-08-06 14:00:00 32.2 5 Sudeste 23 Nordeste 0 981.1 -- 25
2020-08-06 13:00:00 31.1 8 Este 21 Este 0 981.4 -- 27
2020-08-06 12:00:00 30.5 6 Este 19 Este 0 982 -- 30
2020-08-06 11:00:00 28.3 6 Este 14 Este 0 982.1 -- 33
2020-08-06 10:00:00 27.3 4 Este 12 Este 0 981.5 -- 39
2020-08-06 09:00:00 24.8 0 Calma 4 Oeste 0 981 -- 55
2020-08-06 08:00:00 22.2 0 Calma 12 Este 0 980.9 -- 69
2020-08-06 07:00:00 21.9 5 Este 17 Sudeste 0 980.6 -- 75
2020-08-06 06:00:00 21.9 3 Este 16 Sudeste 0 980.4 -- 75
2020-08-06 05:00:00 22.3 4 Este 15 Este 0 980.2 -- 76
2020-08-06 04:00:00 22.9 6 Este 14 Este 0 980 -- 74
2020-08-06 03:00:00 23.4 5 Este 13 Nordeste 0 979.9 -- 68
2020-08-06 02:00:00 23.2 0 Calma 3 Sur 0 979.8 -- 74
2020-08-06 01:00:00 23.6 3 Sudeste 8 Este 0 979.7 -- 74
2020-08-06 00:00:00 23.9 3 Sudoeste 7 Oeste 0 979.5 -- 70
2020-08-05 23:00:00 24.4 4 Sudoeste 10 Sudoeste 0 979.4 -- 64
2020-08-05 22:00:00 25.1 3 Sudoeste 11 Sur 0 978.7 -- 58
2020-08-05 21:00:00 26.3 6 Sudoeste 17 Sudoeste 0 977.9 -- 46
2020-08-05 20:00:00 27.4 12 Sur 22 Sudoeste 0 977.4 -- 39
2020-08-05 19:00:00 29.4 13 Sudoeste 27 Sudoeste 0 977 -- 32
2020-08-05 18:00:00 30.7 13 Sudoeste 27 Sudoeste 0 977 -- 31
2020-08-05 17:00:00 29.8 15 Sudoeste 30 Sudoeste 0 977.2 -- 32
2020-08-05 16:00:00 30.4 16 Sudoeste 30 Sudoeste 0 977.5 -- 31
2020-08-05 15:00:00 30.3 14 Sudoeste 33 Sudoeste 0 977.7 -- 30
2020-08-05 14:00:00 30.2 15 Sudoeste 27 Sur 0 978.4 -- 31
2020-08-05 13:00:00 29.1 11 Sudoeste 20 Sur 0 978.8 -- 34
2020-08-05 12:00:00 30.4 3 Nordeste 12 Nordeste 0 979.4 -- 32
2020-08-05 11:00:00 28.3 3 Nordeste 11 Este 0 979.4 -- 35
2020-08-05 10:00:00 25.7 4 Este 10 Nordeste 0 979.3 -- 52
2020-08-05 09:00:00 24 4 Este 11 Nordeste 0 979.2 -- 72
2020-08-05 08:00:00 22 3 Nordeste 6 Nordeste 0 979.4 -- 78
2020-08-05 07:00:00 21.2 0 Calma 8 Nordeste 0 979.3 -- 78
2020-08-05 06:00:00 20.9 3 Este 8 Este 0 979 -- 72
2020-08-05 05:00:00 21.7 0 Calma 7 Este 0 978.9 -- 78
2020-08-05 04:00:00 22.2 2 Este 5 Nordeste 0 978.7 -- 80
2020-08-05 03:00:00 22.8 0 Calma 7 Este 0 978.9 -- 79
2020-08-05 02:00:00 23.3 3 Nordeste 6 Nordeste 0 979.2 -- 78
2020-08-05 01:00:00 23.5 2 Oeste 7 Sudeste 0 979.3 -- 78
2020-08-05 00:00:00 23.9 0 Calma 6 Sudoeste 0 979.2 -- 76
2020-08-04 23:00:00 23.9 3 Sur 7 Sur 0 979 -- 75
2020-08-04 22:00:00 24.5 5 Sudeste 15 Este 0 978.7 -- 72
2020-08-04 21:00:00 25.2 5 Sur 19 Sur 0 978.3 -- 71
2020-08-04 20:00:00 26.4 11 Sur 22 Sudoeste 0 977.5 -- 65
2020-08-04 19:00:00 27.3 13 Sudoeste 24 Sudoeste 0 977.2 -- 60
2020-08-04 18:00:00 27.7 14 Sudoeste 30 Sur 0 977.2 -- 57
2020-08-04 17:00:00 28.5 17 Sudoeste 30 Sudoeste 0 977.1 -- 50
2020-08-04 16:00:00 28.4 16 Sur 32 Sudoeste 0 977.7 -- 50
2020-08-04 15:00:00 29.3 17 Sudoeste 30 Sudoeste 0 978.1 -- 51
2020-08-04 14:00:00 27.7 13 Sur 28 Sudoeste 0 978.7 -- 55
2020-08-04 13:00:00 26.5 14 Sur 26 Sur 0 979.4 -- 62
2020-08-04 12:00:00 26.9 4 Sur 16 Sur 0 979.5 -- 58
2020-08-04 11:00:00 26.9 4 Sur 14 Este 0 979.7 -- 55
2020-08-04 10:00:00 25.8 6 Este 17 Sudeste 0 979.8 -- 62
2020-08-04 09:00:00 25.3 2 Sudeste 6 Sudeste 0 979.1 -- 73
2020-08-04 08:00:00 23.6 0 Calma 7 Este 0 979.1 -- 81
2020-08-04 07:00:00 23.5 0 Calma 8 Este 0 979.1 -- 78
2020-08-04 06:00:00 24 0 Calma 10 Este 0 978.8 -- 77
2020-08-04 05:00:00 23.9 4 Este 8 Sudeste 0 978.6 -- 80
2020-08-04 04:00:00 24.5 2 Sur 6 Este 0 978.6 -- 78
2020-08-04 03:00:00 24.6 3 Sudoeste 9 Sudoeste 0 978.8 -- 78
2020-08-04 02:00:00 24.7 3 Sur 9 Sudoeste 0 979.1 -- 78
2020-08-04 01:00:00 25 4 Sudoeste 11 Oeste 0 979 -- 77
2020-08-04 00:00:00 25 4 Sudoeste 10 Sur 0 978.8 -- 77
2020-08-03 23:00:00 25 5 Sur 12 Sudoeste 0 978.5 -- 76
2020-08-03 22:00:00 25.4 5 Sur 14 Este 0 977.8 -- 73
2020-08-03 21:00:00 26.4 8 Este 22 Este 0 977.2 -- 62
2020-08-03 20:00:00 27.2 11 Sur 21 Sur 0 976.6 -- 59
2020-08-03 19:00:00 29.1 10 Sur 25 Sudoeste 0 976 -- 51
2020-08-03 18:00:00 28.7 17 Sudoeste 31 Sudoeste 0 976 -- 52
2020-08-03 17:00:00 28.7 18 Sur 30 Sudoeste 0 975.8 -- 50
2020-08-03 16:00:00 29.9 18 Sudoeste 41 Oeste 0 976 -- 43
2020-08-03 15:00:00 29.7 16 Sur 33 Sudoeste 0 976.1 -- 46
2020-08-03 14:00:00 29 19 Sudoeste 33 Sudoeste 0 976.6 -- 49
2020-08-03 13:00:00 29.1 17 Sudoeste 27 Sudoeste 0 977.2 -- 49
2020-08-03 12:00:00 29 8 Este 20 Este 0 977.5 -- 46
2020-08-03 11:00:00 27.5 8 Este 20 Este 0 977 -- 56
2020-08-03 10:00:00 26.3 5 Este 14 Este 0 977.2 -- 55
2020-08-03 09:00:00 25.1 5 Este 13 Nordeste 0 977.2 -- 69
2020-08-03 08:00:00 23.8 3 Nordeste 12 Este 0 977.5 -- 78
2020-08-03 07:00:00 23.3 4 Este 12 Sudeste 0 977.2 -- 81
2020-08-03 06:00:00 23.6 3 Este 9 Este 0 976.9 -- 81
2020-08-03 05:00:00 23.5 0 Calma 6 Este 0 976.9 -- 82
2020-08-03 04:00:00 23.7 3 Este 10 Este 0 976.7 -- 82
2020-08-03 03:00:00 24.1 0 Calma 8 Oeste 0 976.9 -- 82
2020-08-03 02:00:00 24.2 4 Sudoeste 8 Sudeste 0 977.7 -- 82
2020-08-03 01:00:00 24.8 0 Calma 5 Norte 0 978 -- 81
2020-08-03 00:00:00 25.2 4 Sudoeste 7 Sudoeste 0 978.2 -- 81
2020-08-02 23:00:00 25.8 3 Sur 11 Sudoeste 0 977.8 -- 78
2020-08-02 22:00:00 26.2 7 Sudoeste 16 Sudoeste 0 977.6 -- 77
2020-08-02 21:00:00 27.5 8 Sudoeste 13 Sur 0 977.3 -- 66
2020-08-02 20:00:00 31.9 6 Sudoeste 19 Sudoeste 0 976.8 -- 36
2020-08-02 19:00:00 33.5 9 Sudoeste 22 Sudoeste 0 976.9 -- 30
2020-08-02 18:00:00 32.8 12 Sur 25 Sur 0 977.6 -- 31
2020-08-02 17:00:00 32.2 11 Sudoeste 24 Sur 0 977.9 -- 42
2020-08-02 16:00:00 31.7 14 Sudoeste 25 Oeste 0 978.6 -- 46
2020-08-02 15:00:00 30.2 15 Sudoeste 31 Sudoeste 0 979.3 -- 59
2020-08-02 14:00:00 29.6 15 Sudoeste 32 Sudoeste 0 979.5 -- 59
2020-08-02 13:00:00 30.7 18 Sur 32 Sudoeste 0 979.9 -- 51
2020-08-02 12:00:00 32 21 Sur 32 Sudoeste 0 979.9 -- 29
2020-08-02 11:00:00 36.3 7 Este 18 Este 0 979.3 -- 14
2020-08-02 10:00:00 34.7 0 Calma 5 Nordeste 0 978.7 -- 20
2020-08-02 09:00:00 28.7 4 Este 8 Este 0 978.2 -- 27
2020-08-02 08:00:00 24.9 3 Nordeste 8 Este 0 978.4 -- 37
2020-08-02 07:00:00 24.7 3 Este 5 Este 0 978.2 -- 39
2020-08-02 06:00:00 26.1 0 Calma 6 Noroeste 0 978.1 -- 38
2020-08-02 05:00:00 25.1 2 Sudoeste 6 Sudoeste 0 978.3 -- 46
2020-08-02 04:00:00 26 0 Calma 5 Este 0 978.1 -- 47
2020-08-02 03:00:00 26.2 0 Calma 5 Este 0 978.8 -- 49
2020-08-02 02:00:00 27.5 0 Calma 5 Noroeste 0 979.1 -- 53
2020-08-02 01:00:00 27.6 0 Calma 8 Sur 0 979.4 -- 53
2020-08-02 00:00:00 28.3 5 Sur 8 Sur 0 979.7 -- 50
2020-08-01 23:00:00 29.5 0 Calma 6 Sudoeste 0 979.5 -- 50
2020-08-01 22:00:00 29.6 5 Sudoeste 9 Sudoeste 0 979.1 -- 50
2020-08-01 21:00:00 31.2 4 Sudoeste 15 Sudoeste 0 978.6 -- 42
2020-08-01 20:00:00 32 10 Sudoeste 22 Este 0 978.7 -- 41
2020-08-01 19:00:00 35.1 3 Nordeste 20 Oeste 0 978.8 -- 34
2020-08-01 18:00:00 35.1 10 Sudoeste 22 Sur 0 978.6 -- 30
2020-08-01 17:00:00 36 9 Sur 23 Sudoeste 0 979.2 -- 27
2020-08-01 16:00:00 33.6 7 Sudoeste 35 Sudoeste 0 979.9 -- 35
2020-08-01 15:00:00 31.3 12 Sur 24 Sudoeste 0 980.1 -- 50
2020-08-01 14:00:00 34.7 12 Sur 21 Sur 0 980.1 -- 37
2020-08-01 13:00:00 36.4 6 Sur 14 Sur 0 980.7 -- 26
2020-08-01 12:00:00 37.7 2 Sudeste 11 Este 0 980.9 -- 24
2020-08-01 11:00:00 31.2 6 Sur 15 Sudoeste 0 981.2 -- 33
2020-08-01 10:00:00 29.3 3 Sur 18 Oeste 0 980.7 -- 38
2020-08-01 09:00:00 26.4 3 Sur 27 Este 0 981.1 -- 50
2020-08-01 08:00:00 23.8 0 Calma 4 Sudoeste 0 980.6 -- 60
2020-08-01 07:00:00 23.5 0 Calma 6 Noroeste 0 980.3 -- 62
2020-08-01 06:00:00 23.5 2 Noroeste 6 Oeste 0 980.5 -- 69
2020-08-01 05:00:00 24.2 2 Este 7 Este 0 980.4 -- 68
2020-08-01 04:00:00 24.2 3 Oeste 9 Noroeste 0 980.6 -- 66
2020-08-01 03:00:00 24.8 4 Noroeste 6 Oeste 0 980.9 -- 62
2020-08-01 02:00:00 25.6 0 Calma 10 Oeste 0 981 -- 69
2020-08-01 01:00:00 26 0 Calma 8 Sur 0 981.4 -- 63
2020-08-01 00:00:00 27.3 4 Sur 11 Este 0 980.7 -- 49
2020-07-31 23:00:00 29.2 3 Sudeste 8 Sudoeste 0 980.4 -- 45
2020-07-31 22:00:00 28.3 4 Sudoeste 9 Oeste 0 980.1 -- 46
2020-07-31 21:00:00 29.6 5 Sudoeste 15 Sudoeste 0 979.7 -- 42
2020-07-31 20:00:00 30.3 11 Sur 21 Sudeste 0 979.6 -- 42
2020-07-31 19:00:00 32.8 5 Sudoeste 21 Sudoeste 0 979 -- 40
2020-07-31 18:00:00 32.2 12 Sudoeste 31 Sudoeste 0 979.4 -- 34
2020-07-31 17:00:00 30.4 12 Sudoeste 32 Sudoeste 0 979.7 -- 41
2020-07-31 16:00:00 33.3 16 Sudoeste 27 Sudoeste 0 979.4 -- 31
2020-07-31 15:00:00 32.4 15 Sur 24 Sudoeste 0 979.8 -- 30
2020-07-31 14:00:00 31.7 15 Sur 23 Sudoeste 0 980.2 -- 33
2020-07-31 13:00:00 32.9 11 Sur 23 Sudoeste 0 980.6 -- 28
2020-07-31 12:00:00 32.7 5 Sur 16 Sudoeste 0 980.8 -- 30
2020-07-31 11:00:00 31.4 3 Sur 13 Sudoeste 0 981.2 -- 33
2020-07-31 10:00:00 31 0 Calma 4 Noroeste 0 980.9 -- 37
2020-07-31 09:00:00 26.5 0 Calma 6 Oeste 0 980.6 -- 46
2020-07-31 08:00:00 23.9 0 Calma 6 Noroeste 0 980.4 -- 56
2020-07-31 07:00:00 22.4 0 Calma 6 Nordeste 0 980.3 -- 62
2020-07-31 06:00:00 22.9 0 Calma 7 Oeste 0 979.8 -- 67
2020-07-31 05:00:00 23.9 0 Calma 6 Este 0 979.9 -- 59
2020-07-31 04:00:00 25 2 Nordeste 10 Nordeste 0 980.3 -- 55
2020-07-31 03:00:00 24.9 0 Calma 8 Nordeste 0 980.7 -- 66
2020-07-31 02:00:00 25.3 2 Este 6 Nordeste 0 980.8 -- 68
2020-07-31 01:00:00 26.1 0 Calma 4 Sur 0 980.9 -- 66
2020-07-31 00:00:00 26.4 0 Calma 5 Sudoeste 0 980.9 -- 68
2020-07-30 23:00:00 26.4 4 Sudoeste 12 Sudoeste 0 980.6 -- 69
2020-07-30 22:00:00 26.8 6 Sudoeste 14 Sudoeste 0 979.8 -- 67
2020-07-30 21:00:00 27.9 9 Sudoeste 15 Sudoeste 0 979.3 -- 58
2020-07-30 20:00:00 29.4 9 Sur 18 Sudoeste 0 978.6 -- 50
2020-07-30 19:00:00 29.5 12 Sudoeste 25 Sur 0 978.4 -- 50
2020-07-30 18:00:00 30.7 14 Sudoeste 30 Sudoeste 0 978.7 -- 45
2020-07-30 17:00:00 31.7 15 Sudoeste 28 Sudoeste 0 978.5 -- 43
2020-07-30 16:00:00 30.6 18 Sudoeste 31 Sudoeste 0 979 -- 48
2020-07-30 15:00:00 31.8 17 Sudoeste 30 Sudoeste 0 979.2 -- 43
2020-07-30 14:00:00 34.5 6 Sudeste 22 Este 0 979.8 -- 28
2020-07-30 13:00:00 33.2 8 Este 22 Este 0 980.3 -- 28
2020-07-30 12:00:00 32.3 4 Este 17 Este 0 980.8 -- 35
2020-07-30 11:00:00 29.3 5 Este 14 Este 0 980.8 -- 40
2020-07-30 10:00:00 28 4 Norte 9 Norte 0 980.9 -- 45
2020-07-30 09:00:00 25.8 0 Calma 6 Sudoeste 0 980.6 -- 62
2020-07-30 08:00:00 24 0 Calma 7 Nordeste 0 980.4 -- 55
2020-07-30 07:00:00 23.7 3 Este 7 Nordeste 0 979.9 -- 52
2020-07-30 06:00:00 24.8 2 Sudeste 18 Sudoeste 0 979.2 -- 54
2020-07-30 05:00:00 24 3 Este 9 Nordeste 0 978.4 -- 72
2020-07-30 04:00:00 24.4 4 Este 9 Noroeste 0 978.9 -- 72
2020-07-30 03:00:00 24.6 5 Noroeste 14 Sur 0 979.9 -- 73
2020-07-30 02:00:00 24.7 0 Calma 17 Noroeste 0 980.8 -- 75
2020-07-30 01:00:00 24.4 8 Sur 36 Oeste 0 981 -- 78
2020-07-30 00:00:00 24.9 11 Sudeste 34 Sudeste 0 979.6 -- 75
2020-07-29 23:00:00 24.5 13 Sudoeste 24 Sudoeste 0 980.6 -- 78
2020-07-29 22:00:00 25.3 11 Sur 17 Sur 0 979.6 -- 72
2020-07-29 21:00:00 26.6 6 Sur 17 Sudoeste 0 979.5 -- 60
2020-07-29 20:00:00 27 10 Sudoeste 21 Sudoeste 0 978.7 -- 56
2020-07-29 19:00:00 28.8 13 Sur 26 Sur 0 978.1 -- 49
2020-07-29 18:00:00 29.2 17 Sur 31 Sur 0 978.2 -- 48
2020-07-29 17:00:00 30.3 17 Sur 30 Sur 0 978.3 -- 43
2020-07-29 16:00:00 30.2 18 Sur 31 Sur 0 978.5 -- 45
2020-07-29 15:00:00 31.2 10 Sudoeste 27 Sur 0 979.3 -- 46
2020-07-29 14:00:00 33.8 8 Este 20 Norte 0 979.5 -- 37
2020-07-29 13:00:00 32.5 9 Este 19 Norte 0 979.8 -- 35
2020-07-29 12:00:00 30.6 6 Norte 17 Norte 0 980.8 -- 40
2020-07-29 11:00:00 30.8 0 Calma 13 Norte 0 980.4 -- 41
2020-07-29 10:00:00 26.5 4 Sudoeste 11 Sudoeste 0 980.2 -- 58
2020-07-29 09:00:00 25.5 0 Calma 4 Nordeste 0 979.6 -- 62
2020-07-29 08:00:00 24.1 0 Calma 8 Oeste 0 979.2 -- 71
2020-07-29 07:00:00 22.7 0 Calma 9 Este 0 978.9 -- 76
2020-07-29 06:00:00 23.2 2 Nordeste 7 Nordeste 0 978 -- 77
2020-07-29 05:00:00 23.4 3 Nordeste 10 Nordeste 0 978 -- 76
2020-07-29 04:00:00 23.7 3 Nordeste 9 Nordeste 0 978 -- 78
2020-07-29 03:00:00 23.3 2 Noroeste 8 Sudeste 0 978.3 -- 81
2020-07-29 02:00:00 24.1 3 Este 9 Nordeste 0 978.9 -- 81
2020-07-29 01:00:00 24.7 0 Calma 6 Norte 0 979.4 -- 76
2020-07-29 00:00:00 24.6 2 Sudoeste 8 Sudoeste 0 979.3 -- 75
2020-07-28 23:00:00 24.9 4 Sudoeste 16 Sudoeste 0 979.3 -- 73
2020-07-28 22:00:00 25.6 10 Sudoeste 21 Sudoeste 0 978.5 -- 68
2020-07-28 21:00:00 27.4 11 Sudoeste 20 Sudoeste 0 977.8 -- 56
2020-07-28 20:00:00 29.9 14 Sudoeste 22 Sudoeste 0 977.3 -- 43
2020-07-28 19:00:00 31 14 Sudoeste 24 Sudoeste 0 977.1 -- 37
2020-07-28 18:00:00 32.5 13 Sur 25 Sur 0 977.3 -- 33
2020-07-28 17:00:00 32.5 15 Sur 29 Sudoeste 0 977.5 -- 31
2020-07-28 16:00:00 32.3 17 Sur 28 Sudoeste 0 978 -- 30
2020-07-28 15:00:00 31.9 15 Sur 32 Sur 0 978.1 -- 29
2020-07-28 14:00:00 32.9 16 Sur 27 Sudoeste 0 978.6 -- 27
2020-07-28 13:00:00 33.1 13 Sur 22 Sur 0 979.2 -- 24
2020-07-28 12:00:00 34.3 3 Sudeste 12 Oeste 0 979.5 -- 21
2020-07-28 11:00:00 32.8 0 Calma 9 Sudeste 0 979.3 -- 22
2020-07-28 10:00:00 29 4 Sur 9 Sur 0 979.3 -- 28
2020-07-28 09:00:00 27.5 0 Calma 8 Sudeste 0 978.9 -- 37
2020-07-28 08:00:00 23.7 2 Nordeste 6 Nordeste 0 979.1 -- 42
2020-07-28 07:00:00 23 2 Este 5 Este 0 978.9 -- 46
2020-07-28 06:00:00 23.6 2 Norte 6 Noroeste 0 978.6 -- 38
2020-07-28 05:00:00 23.7 0 Calma 11 Oeste 0 978.8 -- 45
2020-07-28 04:00:00 24.4 0 Calma 7 Norte 0 978.6 -- 37
2020-07-28 03:00:00 25.2 4 Noroeste 7 Noroeste 0 979.5 -- 37
2020-07-28 02:00:00 24.9 0 Calma 7 Noroeste 0 980.3 -- 60
2020-07-28 01:00:00 25.1 0 Calma 6 Nordeste 0 981 -- 63
2020-07-28 00:00:00 25.4 3 Noroeste 6 Oeste 0 981.3 -- 64
2020-07-27 23:00:00 25.9 0 Calma 8 Sur 0 981.1 -- 63
2020-07-27 22:00:00 26.6 5 Sudoeste 13 Sudoeste 0 980.6 -- 59
2020-07-27 21:00:00 27.9 7 Sudoeste 18 Oeste 0 980.1 -- 51
2020-07-27 20:00:00 29.4 10 Sudoeste 25 Sudoeste 0 979.8 -- 46
2020-07-27 19:00:00 30.5 11 Sur 24 Sudoeste 0 979.6 -- 41
2020-07-27 18:00:00 30 13 Sur 28 Sur 0 979.3 -- 43
2020-07-27 17:00:00 31.8 12 Sur 30 Sur 0 979.9 -- 34
2020-07-27 16:00:00 33 14 Sur 27 Sudoeste 0 980.1 -- 30
2020-07-27 15:00:00 34.6 14 Sudoeste 26 Sudoeste 0 980.4 -- 27
2020-07-27 14:00:00 35.7 12 Sudoeste 21 Sudoeste 0 980.9 -- 27
2020-07-27 13:00:00 32.9 11 Sur 20 Sudoeste 0 981.4 -- 27
2020-07-27 12:00:00 35.5 4 Sudeste 16 Este 0 981.8 -- 19
2020-07-27 09:00:00 27.2 2 Este 7 Nordeste 0 980.7 0.1 37
2020-07-27 08:00:00 24 4 Nordeste 8 Nordeste 0 980.9 0.2 43
2020-07-27 07:00:00 23.2 3 Noroeste 7 Nordeste 0 980.9 0.4 49
2020-07-27 06:00:00 22.9 0 Calma 9 Nordeste 0 980.6 -0.5 53
2020-07-27 05:00:00 24.5 2 Este 18 Nordeste 0 980.7 -0.7 49
2020-07-27 04:00:00 24.5 8 Nordeste 16 Nordeste 0 980.5 -1.3 50
2020-07-27 03:00:00 24.6 5 Este 13 Este 0 981.1 -0.5 52
2020-07-27 02:00:00 25.3 3 Este 7 Este 0 981.4 0.4 52
2020-07-27 01:00:00 25.9 0 Calma 5 Noroeste 0 981.8 2 53
2020-07-27 00:00:00 26.1 0 Calma 4 Sudoeste 0 981.6 2.5 51
2020-07-26 23:00:00 26.8 0 Calma 9 Sudoeste 0 981 2.6 50
2020-07-26 22:00:00 27.3 7 Sudoeste 13 Sur 0 979.8 1.5 44
2020-07-26 21:00:00 28.6 10 Sudoeste 17 Sudoeste 0 979.1 1 43
2020-07-26 20:00:00 29.9 10 Sudoeste 24 Sudoeste 0 978.4 0.2 43
2020-07-26 19:00:00 30.5 15 Sur 23 Sur 0 978.3 0 40
2020-07-26 18:00:00 31.6 13 Sur 31 Sur 0 978.1 -0.7 39
2020-07-26 17:00:00 32.4 15 Sur 28 Sudoeste 0 978.2 -0.8 35
2020-07-26 16:00:00 33.5 14 Sudoeste 25 Sudoeste 0 978.3 -1.4 33
2020-07-26 15:00:00 33.4 14 Sur 23 Sur 0 978.8 -1.3 29
2020-07-26 14:00:00 35 14 Sudoeste 23 Sur 0 979 -0.9 21
2020-07-26 13:00:00 35.1 8 Sur 21 Oeste 0 979.7 0 16
2020-07-26 12:00:00 35.9 3 Este 14 Este 0 980.1 1 17
2020-07-26 11:00:00 33.6 3 Este 12 Sudeste 0 979.9 0.8 24
2020-07-26 10:00:00 29.9 3 Nordeste 8 Norte 0 979.7 -- 34
2020-07-26 09:00:00 26.6 0 Calma 7 Sudoeste 0 979.1 -- 45
2020-07-26 08:00:00 22 3 Noroeste 8 Noroeste 0 979.1 -- 68
2020-07-26 07:00:00 21.6 2 Este 6 Este 0 979.2 -- 67
2020-07-26 06:00:00 21.7 0 Calma 9 Nordeste 0 978.9 -- 67
2020-07-26 05:00:00 21.8 0 Calma 6 Noroeste 0 978.9 -- 70
2020-07-26 04:00:00 22.2 0 Calma 6 Norte 0 979.1 -- 81
2020-07-26 03:00:00 22.4 0 Calma 0 Calma 0 979.2 -- 77
2020-07-26 02:00:00 23.1 0 Calma 5 Sudoeste 0 979.2 -- 75
2020-07-26 01:00:00 23.7 0 Calma 6 Sudoeste 0 979.3 -- 74
2020-07-26 00:00:00 23.9 3 Sudoeste 10 Sudoeste 0 979.2 -- 70
2020-07-25 23:00:00 24.5 6 Sudoeste 17 Sudoeste 0 979.1 -- 67
2020-07-25 22:00:00 25.3 9 Sudoeste 16 Sudoeste 0 978.3 -- 61
2020-07-25 21:00:00 26.7 9 Sur 14 Sudoeste 0 977.8 -- 55
2020-07-25 20:00:00 28.9 9 Sudoeste 19 Sur 0 977.4 -- 46
2020-07-25 19:00:00 29.5 12 Sur 23 Sudoeste 0 977.5 -- 42
2020-07-25 18:00:00 30.8 12 Sudoeste 25 Sudoeste 0 977.7 -- 40
2020-07-25 17:00:00 31 15 Sudoeste 29 Sudoeste 0 978.1 -- 37
2020-07-25 16:00:00 31.6 16 Sudoeste 29 Sudoeste 0 978.4 -- 32
2020-07-25 15:00:00 31.2 13 Sur 23 Sudoeste 0 978.9 -- 26
2020-07-25 14:00:00 31.2 13 Sudoeste 24 Sudoeste 0 979.5 -- 27
2020-07-25 13:00:00 29.8 13 Sudoeste 22 Sur 0 980 -- 27
2020-07-25 12:00:00 31.4 3 Nordeste 12 Nordeste 0 980.6 -- 21
2020-07-25 11:00:00 28.8 4 Este 15 Este 0 980.2 -- 28
2020-07-25 10:00:00 27.5 4 Este 13 Este 0 980.1 -- 40
2020-07-25 09:00:00 25.5 3 Este 9 Este 0 979.6 -- 49
2020-07-25 08:00:00 21.9 0 Calma 9 Este 0 979.5 -- 66
2020-07-25 07:00:00 20.8 0 Calma -- -- 0 979.6 -- 69
2020-07-25 06:00:00 21.3 0 Calma 5 Oeste 0 979.4 -- 71
2020-07-25 05:00:00 22.1 0 Calma 6 Nordeste 0 979.5 -- 65
2020-07-25 04:00:00 22.3 0 Calma 10 Este 0 979.4 -- 70
2020-07-25 03:00:00 22.7 0 Calma 8 Sudeste 0 979.4 -- 64
2020-07-25 02:00:00 22.5 0 Calma 4 Sudoeste 0 979.6 -- 80
2020-07-25 01:00:00 23.2 2 Sudoeste 6 Sudoeste 0 979.8 -- 76
2020-07-25 00:00:00 23.3 5 Oeste 9 Sudoeste 0 979.7 -- 78
2020-07-24 23:00:00 23.3 4 Sudoeste 12 Oeste 0 979.4 -- 78
2020-07-24 22:00:00 23.9 7 Sudoeste 18 Sur 0 978.6 -- 78
2020-07-24 21:00:00 24.9 8 Sur 19 Sur 0 978.5 -- 75
2020-07-24 20:00:00 26.7 10 Sudoeste 17 Sudoeste 0 978 -- 65
2020-07-24 19:00:00 27.8 10 Sudoeste 25 Sudoeste 0 977.5 -- 62
2020-07-24 18:00:00 28 16 Sur 27 Sudoeste 0 977.9 -- 59
2020-07-24 17:00:00 29.8 14 Sudoeste 27 Sudoeste 0 977.7 -- 49
2020-07-24 16:00:00 29.8 14 Sudoeste 30 Sudoeste 0 978 -- 46
2020-07-24 15:00:00 29.5 16 Sudoeste 29 Sudoeste 0 978.6 -- 50
2020-07-24 14:00:00 30.3 17 Sudoeste 27 Sudoeste 0 978.5 -- 46
2020-07-24 13:00:00 30.5 14 Sur 22 Sur 0 979 -- 47
2020-07-24 12:00:00 30.9 6 Sudoeste 14 Sur 0 979.1 -- 38
2020-07-24 11:00:00 30 2 Nordeste 9 Nordeste 0 978.9 -- 36
2020-07-24 10:00:00 28.5 0 Calma 6 Sudeste 0 978.8 -- 43
2020-07-24 09:00:00 25.5 0 Calma 7 Este 0 978.7 -- 48
2020-07-24 08:00:00 22.2 0 Calma 5 Sudeste 0 978.8 -- 58
2020-07-24 07:00:00 21 2 Nordeste 4 Nordeste 0 978.9 -- 58
2020-07-24 06:00:00 21.4 0 Calma 4 Norte 0 978.8 -- 56
2020-07-24 05:00:00 21.6 0 Calma 5 Noroeste 0 978.9 -- 54
2020-07-24 04:00:00 22.5 0 Calma 8 Nordeste 0 979 -- 53
2020-07-24 03:00:00 23.2 3 Este 6 Sudeste 0 979.4 -- 50
2020-07-24 02:00:00 23.6 0 Calma 7 Nordeste 0 979.9 -- 49
2020-07-24 01:00:00 24.3 2 Nordeste 10 Nordeste 0 980.3 -- 49
2020-07-24 00:00:00 24.5 4 Este 12 Este 0 980.3 -- 47
2020-07-23 23:00:00 25.3 4 Este 15 Sudeste 0 980.2 -- 43
2020-07-23 22:00:00 26.4 4 Este 10 Sudeste 0 979.7 -- 36
2020-07-23 21:00:00 27.3 3 Sudoeste 19 Sudoeste 0 979.3 -- 35
2020-07-23 20:00:00 27.1 13 Sudoeste 26 Sudoeste 0 979.2 -- 40
2020-07-23 19:00:00 28.5 13 Sudoeste 29 Sudoeste 0 979 -- 40
2020-07-23 18:00:00 29.5 14 Sudoeste 31 Sudoeste 0 979.3 -- 39
2020-07-23 17:00:00 29.8 16 Sudoeste 30 Sudoeste 0 979.4 -- 40
2020-07-23 16:00:00 28.8 17 Sudoeste 29 Sudoeste 0 980 -- 37
2020-07-23 15:00:00 29.6 15 Sudoeste 31 Sudoeste 0 980.4 -- 37
2020-07-23 14:00:00 28.2 15 Sudoeste 26 Sudoeste 0 981 -- 39
2020-07-23 13:00:00 28.9 10 Sur 21 Sudoeste 0 981.6 -- 40
2020-07-23 12:00:00 28.3 8 Sur 26 Sudoeste 0 981.9 -- 40
2020-07-23 11:00:00 26.7 8 Sur 18 Sur 0 982 -- 42
2020-07-23 10:00:00 25.7 5 Sur 12 Sur 0 982.3 -- 45
2020-07-23 09:00:00 25.5 0 Calma 5 Sudeste 0 981.3 -- 50
2020-07-23 08:00:00 21.6 0 Calma 4 Oeste 0 981.6 -- 67
2020-07-23 07:00:00 20.4 0 Calma 4 Nordeste 0 981.4 -- 77
2020-07-23 06:00:00 21.3 0 Calma 4 Este 0 981.2 -- 71
2020-07-23 05:00:00 21.2 0 Calma 5 Nordeste 0 981.2 -- 77
2020-07-23 04:00:00 21.6 0 Calma 5 Nordeste 0 981.5 -- 79
2020-07-23 03:00:00 22.5 0 Calma 6 Noroeste 0 982.1 -- 78
2020-07-23 02:00:00 22.8 0 Calma 4 Sudoeste 0 982.9 -- 78
2020-07-23 01:00:00 22.8 3 Sudoeste 11 Sudoeste 0 983.1 -- 78
2020-07-23 00:00:00 23.2 6 Sudoeste 14 Sudoeste 0 983 -- 76
2020-07-22 23:00:00 23.6 7 Sudoeste 13 Sudoeste 0 982.5 -- 74
2020-07-22 22:00:00 24.2 7 Sudoeste 13 Sudoeste 0 981.6 -- 72
2020-07-22 21:00:00 24.8 9 Sudoeste 20 Sur 0 980.9 -- 68
2020-07-22 20:00:00 26.5 11 Sudoeste 21 Sur 0 980.5 -- 60
2020-07-22 19:00:00 27.3 13 Sudoeste 28 Sudoeste 0 980.1 -- 57
2020-07-22 18:00:00 27.2 16 Sur 31 Sur 0 980.4 -- 58
2020-07-22 17:00:00 27.2 19 Sur 31 Sur 0 980.4 -- 54
2020-07-22 16:00:00 27.9 18 Sur 37 Sudoeste 0 980.5 -- 52
2020-07-22 15:00:00 28.8 18 Sudoeste 31 Sudoeste 0 980.6 -- 48
2020-07-22 14:00:00 28.5 18 Sur 31 Sur 0 981.4 -- 46
2020-07-22 13:00:00 28.9 8 Sur 26 Sudeste 0 981.9 -- 35
2020-07-22 12:00:00 29.2 8 Sudeste 26 Sudeste 0 982 -- 34
2020-07-22 11:00:00 29 8 Este 26 Este 0 982 -- 33
2020-07-22 10:00:00 26.9 10 Este 24 Este 0 982.3 -- 36
2020-07-22 09:00:00 25.6 2 Norte 9 Noroeste 0 981.8 -- 36
2020-07-22 08:00:00 22.6 3 Este 12 Este 0 981.6 -- 45
2020-07-22 07:00:00 21 5 Noroeste 11 Noroeste 0 982.4 -- 49
2020-07-22 06:00:00 22.5 3 Nordeste 8 Norte 0 981.2 -- 47
2020-07-22 05:00:00 22.6 0 Calma 9 Noroeste 0 981.4 -- 48
2020-07-22 04:00:00 22.6 0 Calma 15 Oeste 0 981.5 -- 63
2020-07-22 03:00:00 23.1 4 Norte 17 Nordeste 0 982.2 -- 54
2020-07-22 02:00:00 24.3 6 Nordeste 21 Este 0 982 -- 44
2020-07-22 01:00:00 24.8 7 Nordeste 20 Nordeste 0 982.2 -- 44
2020-07-22 00:00:00 23.8 6 Sur 17 Sudoeste 0 984 -- 76
2020-07-21 23:00:00 24.5 8 Sudoeste 17 Sudoeste 0 982.9 -- 71
2020-07-21 22:00:00 25.2 5 Sur 13 Sudoeste 0 981.3 -- 67
2020-07-21 21:00:00 26.7 8 Sudoeste 17 Sudoeste 0 980.9 -- 52
2020-07-21 20:00:00 29.2 6 Sudoeste 23 Este 0 980.2 -- 37
2020-07-21 19:00:00 32.7 7 Sudeste 24 Este 0 980.1 -- 25
2020-07-21 18:00:00 31.5 8 Este 19 Sur 0 980.6 -- 30
2020-07-21 17:00:00 31.7 10 Este 25 Sudeste 0 980.9 -- 32
2020-07-21 16:00:00 31.6 10 Sudeste 25 Este 0 981.6 -- 33
2020-07-21 15:00:00 33.5 6 Este 22 Este 0 981.7 -- 30
2020-07-21 14:00:00 31.9 6 Sudeste 27 Este 0 982 -- 28
2020-07-21 13:00:00 32.3 9 Este 24 Sudeste 0 982 -- 18
2020-07-21 12:00:00 31 9 Este 22 Este 0 983 -- 17
2020-07-21 11:00:00 29.9 6 Este 17 Sudeste 0 982.1 -- 21
2020-07-21 10:00:00 28.1 5 Este 10 Este 0 982.3 -- 26
2020-07-21 09:00:00 27.4 0 Calma 7 Noroeste 0 981.9 -- 32
2020-07-21 08:00:00 22.3 5 Noroeste 9 Sudoeste 0 981.6 -- 43
2020-07-21 07:00:00 20.1 0 Calma 10 Noroeste 0 981.5 -- 50
2020-07-21 06:00:00 21 6 Nordeste 14 Nordeste 0 981.8 -- 52
2020-07-21 05:00:00 21 6 Nordeste 14 Nordeste 0 982.2 -- 55
2020-07-21 04:00:00 22.3 2 Noroeste 8 Nordeste 0 982.5 -- 53
2020-07-21 03:00:00 22.8 2 Este 13 Este 0 982.2 -- 52
2020-07-21 02:00:00 23.5 6 Este 14 Este 0 982.4 -- 52
2020-07-21 01:00:00 24.1 4 Nordeste 18 Nordeste 0 982.8 -- 50
2020-07-21 00:00:00 24.9 6 Nordeste 19 Nordeste 0 982.3 -- 44
2020-07-20 23:00:00 24.1 4 Sur 7 Sudoeste 0 981.9 -- 60
2020-07-20 22:00:00 24.8 5 Sudoeste 17 Sudoeste 0 981.1 -- 56
2020-07-20 21:00:00 25.9 9 Sur 20 Sudoeste 0 980.1 -- 49
2020-07-20 20:00:00 27.6 10 Sudoeste 22 Sur 0 980.2 -- 39
2020-07-20 19:00:00 28.8 11 Sudoeste 23 Sudoeste 0 979.6 -- 36
2020-07-20 18:00:00 29.2 15 Sur 27 Sudoeste 0 979.6 -- 39
2020-07-20 17:00:00 29.1 16 Sur 31 Sudoeste 0 979.8 -- 38
2020-07-20 16:00:00 29.2 19 Sur 30 Sur 0 979.8 -- 38
2020-07-20 15:00:00 31.5 15 Sur 26 Sur 0 980.1 -- 30
2020-07-20 14:00:00 30.3 14 Sur 25 Sur 0 980.5 -- 32
2020-07-20 13:00:00 30.3 10 Sur 17 Sur 0 980.8 -- 31
2020-07-20 12:00:00 29.2 8 Sur 21 Sudoeste 0 981 -- 34
2020-07-20 11:00:00 27.9 5 Sur 15 Sur 0 981.1 -- 33
2020-07-20 10:00:00 25.6 5 Sur 8 Sur 0 981.2 -- 40
2020-07-20 09:00:00 24.7 0 Calma 6 Oeste 0 980.3 -- 49
2020-07-20 08:00:00 21.9 2 Nordeste 7 Norte 0 980.7 -- 59
2020-07-20 07:00:00 20.1 0 Calma 5 Nordeste 0 980.9 -- 80
2020-07-20 06:00:00 20 0 Calma 4 Noroeste 0 980.6 -- 81
2020-07-20 05:00:00 20.7 0 Calma 5 Norte 0 980.5 -- 82
2020-07-20 04:00:00 20.9 0 Calma -- -- 0 980.7 -- 82
2020-07-20 03:00:00 21.2 0 Calma 5 Sudoeste 0 981.1 -- 82
2020-07-20 02:00:00 21.6 2 Oeste 12 Sudoeste 0 981.6 -- 82
2020-07-20 01:00:00 22 5 Sudoeste 13 Sudoeste 0 981.5 -- 81
2020-07-20 00:00:00 22.5 6 Sudoeste 13 Sur 0 981.2 -- 77
2020-07-19 23:00:00 23.7 7 Sudoeste 11 Sudoeste 0 981.1 -- 62
2020-07-19 22:00:00 24.8 4 Sur 14 Sudoeste 0 979.9 -- 51
2020-07-19 21:00:00 26.1 3 Sur 13 Sur 0 979.7 -- 41
2020-07-19 20:00:00 26.2 7 Sudoeste 17 Sur 0 980 -- 39
2020-07-19 19:00:00 27.1 11 Sudoeste 23 Sur 0 979.9 -- 34
2020-07-19 18:00:00 27.8 14 Sudoeste 27 Sudoeste 0 979.7 -- 34
2020-07-19 17:00:00 29.3 15 Sudoeste 27 Sudoeste 0 979.8 -- 36
2020-07-19 16:00:00 29.7 13 Sudoeste 30 Sudoeste 0 980 -- 37
2020-07-19 15:00:00 28.4 13 Sudoeste 23 Sudoeste 0 980.6 -- 39
2020-07-19 14:00:00 27.6 11 Sur 24 Sudoeste 0 980.9 -- 39
2020-07-19 13:00:00 27.7 9 Sur 24 Sudoeste 0 981.5 -- 40
2020-07-19 12:00:00 27.2 7 Sur 15 Sudoeste 0 981.6 0.4 40
2020-07-19 11:00:00 26.1 5 Sur 12 Sudoeste 0 981.8 0.7 45
2020-07-19 10:00:00 25.9 0 Calma 7 Sudoeste 0 981.6 0.3 48
2020-07-19 09:00:00 24.3 2 Sudeste 4 Sudeste 0 981.2 0 59
2020-07-19 08:00:00 21.5 0 Calma 5 Sudeste 0 981.1 -- 74
2020-07-19 07:00:00 20.3 0 Calma 3 Sudoeste 0 981.3 -- 78
2020-07-19 06:00:00 20.8 0 Calma 0 Calma 0 981.2 -- 77
2020-07-19 05:00:00 20.9 0 Calma 7 Sudeste 0 981.1 -- 76
2020-07-19 04:00:00 21.3 0 Calma 7 Sur 0 981.3 -- 76
2020-07-19 03:00:00 21.6 3 Sur 6 Sudeste 0 981.5 -- 75
2020-07-19 02:00:00 21.5 4 Sur 8 Sur 0 982 -- 77
2020-07-19 01:00:00 21.4 5 Oeste 10 Noroeste 0 982.2 -- 79
2020-07-19 00:00:00 21.9 3 Oeste 9 Sudoeste 0 982.2 -- 77
2020-07-18 23:00:00 21.9 6 Sudoeste 12 Sudoeste 0 982 -- 76
2020-07-18 22:00:00 22.5 6 Sudoeste 16 Sudoeste 0 981.2 -- 72
2020-07-18 21:00:00 23.5 10 Sudoeste 22 Sudoeste 0 980.4 -- 63
2020-07-18 20:00:00 25 12 Sudoeste 24 Sudoeste 0 979.5 -- 53
2020-07-18 19:00:00 25.7 16 Sudoeste 28 Sudoeste 0 979.4 -- 50
2020-07-18 18:00:00 26.8 15 Sudoeste 30 Sudoeste 0 979.4 -- 40
2020-07-18 17:00:00 27.8 17 Sudoeste 32 Sudoeste 0 979.5 -- 36
2020-07-18 16:00:00 28.1 16 Sudoeste 31 Sudoeste 0 979.8 -- 35
2020-07-18 15:00:00 27.6 18 Sudoeste 31 Sur 0 980.2 -- 33
2020-07-18 14:00:00 27.6 17 Sur 30 Sudoeste 0 980.5 -- 37
2020-07-18 13:00:00 27.4 14 Sudoeste 26 Sur 0 980.9 -- 42
2020-07-18 12:00:00 28.5 5 Nordeste 15 Nordeste 0 981.3 -- 34
2020-07-18 11:00:00 27.2 3 Este 14 Sudeste 0 981.3 -- 40
2020-07-18 10:00:00 24.7 5 Sudeste 14 Este 0 981.4 -- 48
2020-07-18 09:00:00 23.9 2 Este 8 Este 0 981 -- 59
2020-07-18 08:00:00 21.2 0 Calma 6 Este 0 981.1 -- 66
2020-07-18 07:00:00 20.1 2 Nordeste 5 Nordeste 0 981.3 -- 70
2020-07-18 06:00:00 20.6 3 Nordeste 7 Este 0 981.1 -- 72
2020-07-18 05:00:00 20.5 0 Calma -- -- 0 981.1 -- 79
2020-07-18 04:00:00 20.7 0 Calma 3 Sudeste 0 981.2 -- 78
2020-07-18 03:00:00 21.5 0 Calma 7 Este 0 981.6 -- 72
2020-07-18 02:00:00 21.3 2 Sudoeste 15 Sudoeste 0 981.9 -- 80
2020-07-18 01:00:00 21.6 5 Sudoeste 8 Sudoeste 0 981.9 -- 78
2020-07-18 00:00:00 21.8 4 Sur 9 Sudoeste 0 981.6 -- 78
2020-07-17 23:00:00 21.9 5 Sudoeste 12 Sudoeste 0 981.2 -- 76
2020-07-17 22:00:00 22.5 9 Sur 15 Sudoeste 0 980.8 -- 71
2020-07-17 21:00:00 23.4 10 Sudoeste 21 Sur 0 979.8 -- 62
2020-07-17 20:00:00 24.9 13 Sudoeste 24 Sur 0 979.3 -- 54
2020-07-17 19:00:00 25.5 15 Sur 25 Sur 0 979.1 -- 46
2020-07-17 18:00:00 27 15 Sudoeste 29 Sudoeste 0 979.3 -- 40
2020-07-17 17:00:00 27.4 15 Sudoeste 28 Sur 0 979.6 -- 36
2020-07-17 16:00:00 28.2 14 Sudoeste 28 Sur 0 980.1 -- 33
2020-07-17 15:00:00 28.2 17 Sudoeste 32 Sudoeste 0 980.4 -- 32
2020-07-17 14:00:00 27.4 17 Sudoeste 50 Sur 0 980.7 -- 30
2020-07-17 13:00:00 28 13 Sudoeste 24 Sur 0 981.2 -- 30
2020-07-17 12:00:00 26.7 12 Sur 21 Sur 0 981.9 -- 29
2020-07-17 11:00:00 27.1 5 Oeste 11 Noroeste 0 982 -- 27
2020-07-17 10:00:00 27.7 0 Calma 8 Este 0 982.2 -- 33
2020-07-17 09:00:00 24.9 0 Calma -- -- 0 982 -- 48
2020-07-17 08:00:00 21.9 0 Calma 4 Noroeste 0 981.9 -- 60
2020-07-17 07:00:00 19.8 0 Calma 9 Sudeste 0 982.2 -- 71
2020-07-17 06:00:00 20.6 0 Calma 8 Nordeste 0 981.7 -- 58
2020-07-17 05:00:00 20.8 4 Nordeste 10 Nordeste 0 981.6 -- 59
2020-07-17 04:00:00 20.8 0 Calma 6 Este 0 981.8 -- 77
2020-07-17 03:00:00 21 0 Calma 6 Noroeste 0 982.2 -- 77
2020-07-17 02:00:00 21.4 0 Calma -- -- 0 982.8 -- 77
2020-07-17 01:00:00 21.5 0 Calma 6 Sudoeste 0 983.3 -- 75
2020-07-17 00:00:00 21.8 5 Sudoeste 11 Sudoeste 0 983.4 -- 75
2020-07-16 23:00:00 22.1 8 Sudoeste 14 Sur 0 983 -- 73
2020-07-16 22:00:00 22.8 10 Sudoeste 16 Sudoeste 0 982.3 -- 69
2020-07-16 21:00:00 24.1 9 Sudoeste 20 Sur 0 981.7 -- 65
2020-07-16 20:00:00 25.9 10 Sudoeste 21 Sudoeste 0 981.1 -- 57
2020-07-16 19:00:00 27.1 12 Sudoeste 22 Oeste 0 981.1 -- 53
2020-07-16 18:00:00 28.4 10 Sudoeste 27 Sur 0 981.1 -- 46
2020-07-16 17:00:00 27.5 15 Sudoeste 27 Sur 0 981.3 -- 43
2020-07-16 16:00:00 28.4 17 Sur 27 Sudoeste 0 981.6 -- 37
2020-07-16 15:00:00 29.3 9 Sur 22 Este 0 982.4 -- 33
2020-07-16 14:00:00 31.3 7 Este 24 Sudeste 0 982.4 -- 27
2020-07-16 13:00:00 29.6 9 Este 25 Este 0 983.1 -- 27
2020-07-16 12:00:00 29 8 Este 21 Este 0 983.6 -- 29
2020-07-16 11:00:00 27.3 6 Este 18 Este 0 983.5 -- 32
2020-07-16 10:00:00 26.2 4 Este 9 Nordeste 0 983.3 -- 34
2020-07-16 09:00:00 24.6 0 Calma 5 Sudeste 0 983.2 -- 42
2020-07-16 08:00:00 20.5 3 Noroeste 6 Oeste 0 983.4 -- 49
2020-07-16 07:00:00 19.5 0 Calma 6 Oeste 0 983.4 -- 52
2020-07-16 06:00:00 19.4 3 Noroeste 7 Norte 0 983.2 -- 58
2020-07-16 05:00:00 20.3 0 Calma 9 Este 0 983.2 -- 60
2020-07-16 04:00:00 21.2 3 Este 10 Este 0 983 -- 56
2020-07-16 03:00:00 21.7 3 Nordeste 9 Nordeste 0 983.1 -- 56
2020-07-16 02:00:00 21.4 0 Calma 8 Noroeste 0 983.4 -- 68
2020-07-16 01:00:00 22.4 4 Norte 8 Norte 0 983.4 -- 63
2020-07-16 00:00:00 22.4 4 Sudoeste 10 Sudoeste 0 983.3 -- 62
2020-07-15 23:00:00 23.2 3 Sudoeste 9 Sudoeste 0 982.6 -- 60
2020-07-15 22:00:00 24.3 5 Sudoeste 17 Este 0 981.8 -- 54
2020-07-15 21:00:00 25.7 6 Este 17 Sudeste 0 981 -- 46
2020-07-15 20:00:00 27.1 6 Sudeste 21 Este 0 980.6 -- 44
2020-07-15 19:00:00 27.1 8 Sur 25 Sudoeste 0 980.5 -- 46
2020-07-15 18:00:00 27.1 15 Sur 22 Sudoeste 0 980.7 -- 47
2020-07-15 17:00:00 28.3 7 Sudeste 29 Sur 0 980.8 -- 43
2020-07-15 16:00:00 27.9 18 Sudoeste 29 Sudoeste 0 981.2 -- 44
2020-07-15 15:00:00 29.5 5 Sudeste 22 Oeste 0 981 -- 38
2020-07-15 14:00:00 29.3 8 Este 23 Este 0 981.2 -- 38
2020-07-15 13:00:00 28.5 4 Este 22 Sudeste 0 981.5 -- 39
2020-07-15 12:00:00 27.7 7 Este 20 Este 0 982 -- 43
2020-07-15 11:00:00 25.5 8 Este 19 Este 0 982 -- 47
2020-07-15 10:00:00 24.6 6 Este 17 Nordeste 0 981.7 -- 50
2020-07-15 09:00:00 24 4 Este 12 Este 0 981.2 -- 56
2020-07-15 08:00:00 21.7 2 Sudeste 6 Sudeste 0 981.1 -- 66
2020-07-15 07:00:00 20.2 0 Calma 9 Noroeste 0 980.9 -- 74
2020-07-15 06:00:00 20.6 0 Calma 8 Noroeste 0 980.4 -- 74
2020-07-15 05:00:00 21.1 2 Este 10 Sudeste 0 980.3 -- 74
2020-07-15 04:00:00 21.9 2 Este 8 Nordeste 0 980.2 -- 69
2020-07-15 03:00:00 22.1 2 Nordeste 8 Nordeste 0 980.3 -- 74
2020-07-15 02:00:00 22.8 3 Este 13 Este 0 980.5 -- 72
2020-07-15 01:00:00 23.3 3 Este 29 Este 0 980.8 -- 65
2020-07-15 00:00:00 23.9 10 Este 25 Este 0 980.5 -- 54
2020-07-14 23:00:00 23.8 8 Nordeste 14 Nordeste 0 981.5 -- 63
2020-07-14 22:00:00 23.2 8 Sudoeste 19 Sudoeste 0 979.4 -- 68
2020-07-14 21:00:00 25.2 5 Sur 17 Este 0 978.1 -- 53
2020-07-14 20:00:00 25.5 5 Este 15 Este 0 979.9 -- 49
2020-07-14 19:00:00 25.3 8 Sur 17 Oeste 0 979 -- 56
2020-07-14 18:00:00 26.6 7 Sur 35 Sudoeste 0 978.7 -- 51
2020-07-14 17:00:00 26.2 8 Sudeste 22 Este 0 979.7 -- 52
2020-07-14 16:00:00 27.4 11 Este 28 Este 0 979.4 -- 51
2020-07-14 15:00:00 28.7 9 Sudeste 25 Este 0 979.7 -- 47
2020-07-14 14:00:00 28.7 5 Este 24 Este 0 980.6 -- 42
2020-07-14 13:00:00 28.3 6 Sur 26 Sudoeste 0 980.2 -- 43
2020-07-14 12:00:00 27.8 10 Sudoeste 20 Sur 0 981.2 -- 41
2020-07-14 11:00:00 27.3 5 Este 13 Este 0 981.2 -- 42
2020-07-14 10:00:00 25.5 5 Este 12 Este 0 981.3 -- 53
2020-07-14 09:00:00 23.4 4 Sur 9 Sudeste 0 981.5 -- 58
2020-07-14 08:00:00 20.6 0 Calma 6 Este 0 981.8 -- 65
2020-07-14 07:00:00 20.4 0 Calma 5 Sudoeste 0 981.6 -- 66
2020-07-14 06:00:00 21 0 Calma 5 Noroeste 0 981.7 -- 65
2020-07-14 05:00:00 21.8 2 Este 5 Nordeste 0 982 -- 66
2020-07-14 04:00:00 21.5 3 Noroeste 5 Noroeste 0 982.4 -- 62
2020-07-14 03:00:00 21.6 0 Calma 5 Este 0 982.6 -- 62
2020-07-14 02:00:00 22.8 2 Sur 5 Sudoeste 0 982.9 -- 58
2020-07-14 01:00:00 22.9 3 Sur 6 Sudoeste 0 983.1 -- 57
2020-07-14 00:00:00 23.6 0 Calma 4 Oeste 0 983.1 -- 56